sensor_id;sensor_type;location;lat;lon;timestamp;pressure;altitude;pressure_sealevel;temperature;humidity
76285;BME280;65096;50.998;7.098;2023-05-07T00:57:06;100962.84;;;13.92;64.96
76285;BME280;65096;50.998;7.098;2023-05-07T02:01:42;100927.47;;;13.74;65.53
76285;BME280;65096;50.998;7.098;2023-05-07T06:51:40;100987.84;;;14.11;63.52
76285;BME280;65096;50.998;7.098;2023-05-07T06:54:11;100980.94;;;14.07;64.38
76285;BME280;65096;50.998;7.098;2023-05-07T06:56:38;100988.66;;;14.25;64.03
76285;BME280;65096;50.998;7.098;2023-05-07T06:59:52;100985.16;;;14.38;64.29
76285;BME280;65096;50.998;7.098;2023-05-07T07:02:26;100984.25;;;14.42;63.39
76285;BME280;65096;50.998;7.098;2023-05-07T07:06:27;100980.78;;;14.50;63.17
76285;BME280;65096;50.998;7.098;2023-05-07T07:14:44;100987.63;;;14.60;61.62
76285;BME280;65096;50.998;7.098;2023-05-07T07:17:24;100984.09;;;14.72;61.84
76285;BME280;65096;50.998;7.098;2023-05-07T07:20:05;100996.13;;;14.87;62.22
76285;BME280;65096;50.998;7.098;2023-05-07T07:22:40;100993.47;;;14.97;60.99
76285;BME280;65096;50.998;7.098;2023-05-07T07:25:24;100992.47;;;15.15;61.93
76285;BME280;65096;50.998;7.098;2023-05-07T07:28:33;100998.47;;;15.23;59.30
76285;BME280;65096;50.998;7.098;2023-05-07T09:35:18;100987.63;;;20.51;45.16
76285;BME280;65096;50.998;7.098;2023-05-07T09:37:50;100984.81;;;20.57;44.63
76285;BME280;65096;50.998;7.098;2023-05-07T10:18:50;100967.16;;;21.92;39.23
76285;BME280;65096;50.998;7.098;2023-05-07T10:21:48;100972.16;;;22.00;38.30
76285;BME280;65096;50.998;7.098;2023-05-07T10:24:34;100966.78;;;22.03;40.02
76285;BME280;65096;50.998;7.098;2023-05-07T10:27:07;100965.53;;;22.13;39.54
76285;BME280;65096;50.998;7.098;2023-05-07T10:30:00;100960.91;;;22.19;36.74
76285;BME280;65096;50.998;7.098;2023-05-07T10:32:49;100971.72;;;22.35;37.02
76285;BME280;65096;50.998;7.098;2023-05-07T10:35:55;100975.63;;;22.46;39.77
76285;BME280;65096;50.998;7.098;2023-05-07T10:38:30;100965.91;;;22.71;37.33
76285;BME280;65096;50.998;7.098;2023-05-07T10:41:09;100975.03;;;22.17;35.41
76285;BME280;65096;50.998;7.098;2023-05-07T11:00:57;100958.28;;;23.29;36.62
76285;BME280;65096;50.998;7.098;2023-05-07T11:14:09;100958.94;;;23.94;35.83
76285;BME280;65096;50.998;7.098;2023-05-07T11:17:11;100953.59;;;24.34;33.33
76285;BME280;65096;50.998;7.098;2023-05-07T11:26:50;100937.63;;;24.74;34.14
76285;BME280;65096;50.998;7.098;2023-05-07T11:29:47;100940.44;;;24.88;33.76
76285;BME280;65096;50.998;7.098;2023-05-07T11:32:49;100938.75;;;24.50;31.40
76285;BME280;65096;50.998;7.098;2023-05-07T11:36:14;100938.53;;;24.55;33.33
76285;BME280;65096;50.998;7.098;2023-05-07T11:39:02;100948.25;;;24.73;33.34
76285;BME280;65096;50.998;7.098;2023-05-07T11:42:14;100938.06;;;24.65;33.50
76285;BME280;65096;50.998;7.098;2023-05-07T11:45:30;100945.03;;;24.66;32.04
76285;BME280;65096;50.998;7.098;2023-05-07T12:05:09;100934.50;;;24.29;34.54
76285;BME280;65096;50.998;7.098;2023-05-07T12:08:14;100943.03;;;24.34;31.47
76285;BME280;65096;50.998;7.098;2023-05-07T12:10:53;100940.81;;;24.06;34.31
76285;BME280;65096;50.998;7.098;2023-05-07T12:14:06;100937.78;;;24.15;35.03
76285;BME280;65096;50.998;7.098;2023-05-07T12:29:17;100948.97;;;23.82;36.10
76285;BME280;65096;50.998;7.098;2023-05-07T12:41:54;100951.88;;;23.56;36.86
76285;BME280;65096;50.998;7.098;2023-05-07T12:47:43;100956.69;;;23.46;35.94
76285;BME280;65096;50.998;7.098;2023-05-07T12:50:38;100958.56;;;23.43;35.80
76285;BME280;65096;50.998;7.098;2023-05-07T12:53:59;100956.22;;;23.37;36.74
76285;BME280;65096;50.998;7.098;2023-05-07T12:57:08;100963.22;;;23.36;37.23
76285;BME280;65096;50.998;7.098;2023-05-07T12:59:58;100959.03;;;23.10;37.36
76285;BME280;65096;50.998;7.098;2023-05-07T13:08:57;100954.28;;;22.77;37.95
76285;BME280;65096;50.998;7.098;2023-05-07T13:11:58;100961.03;;;22.84;38.57
76285;BME280;65096;50.998;7.098;2023-05-07T13:21:32;100951.47;;;22.60;39.18
76285;BME280;65096;50.998;7.098;2023-05-07T13:27:18;100964.84;;;22.54;39.04
76285;BME280;65096;50.998;7.098;2023-05-07T13:30:02;100957.03;;;22.52;38.71
76285;BME280;65096;50.998;7.098;2023-05-07T13:32:35;100962.28;;;22.52;38.98
76285;BME280;65096;50.998;7.098;2023-05-07T13:38:34;100962.50;;;22.46;39.69
76285;BME280;65096;50.998;7.098;2023-05-07T13:41:26;100962.22;;;22.54;39.42
76285;BME280;65096;50.998;7.098;2023-05-07T13:44:08;100968.28;;;22.56;38.98
76285;BME280;65096;50.998;7.098;2023-05-07T13:46:46;100964.09;;;22.50;38.15
76285;BME280;65096;50.998;7.098;2023-05-07T13:49:25;100960.84;;;22.44;39.05
76285;BME280;65096;50.998;7.098;2023-05-07T13:52:22;100961.78;;;22.43;40.20
76285;BME280;65096;50.998;7.098;2023-05-07T13:55:19;100960.03;;;22.42;38.98
76285;BME280;65096;50.998;7.098;2023-05-07T13:57:55;100957.34;;;22.43;39.65
76285;BME280;65096;50.998;7.098;2023-05-07T14:00:33;100955.72;;;22.41;40.30
76285;BME280;65096;50.998;7.098;2023-05-07T14:03:06;100954.84;;;22.40;39.26
76285;BME280;65096;50.998;7.098;2023-05-07T14:05:38;100945.44;;;22.35;39.78
76285;BME280;65096;50.998;7.098;2023-05-07T14:08:13;100946.59;;;22.28;39.11
76285;BME280;65096;50.998;7.098;2023-05-07T14:11:13;100950.31;;;22.22;39.83
76285;BME280;65096;50.998;7.098;2023-05-07T14:13:49;100948.03;;;22.13;39.59
76285;BME280;65096;50.998;7.098;2023-05-07T14:16:17;100954.47;;;22.05;39.42
76285;BME280;65096;50.998;7.098;2023-05-07T14:18:57;100963.41;;;21.99;39.27
76285;BME280;65096;50.998;7.098;2023-05-07T14:21:29;100971.78;;;21.86;39.67
76285;BME280;65096;50.998;7.098;2023-05-07T14:23:58;100994.63;;;21.84;40.35
76285;BME280;65096;50.998;7.098;2023-05-07T14:27:13;101014.97;;;21.77;43.65
76285;BME280;65096;50.998;7.098;2023-05-07T14:30:08;101030.97;;;21.45;47.43
76285;BME280;65096;50.998;7.098;2023-05-07T18:43:21;101205.75;;;17.63;60.90
76285;BME280;65096;50.998;7.098;2023-05-07T18:45:48;101207.53;;;17.61;60.77
76285;BME280;65096;50.998;7.098;2023-05-07T18:48:14;101211.06;;;17.55;61.46
76285;BME280;65096;50.998;7.098;2023-05-07T18:50:41;101212.84;;;17.53;61.19
76285;BME280;65096;50.998;7.098;2023-05-07T18:53:08;101209.41;;;17.51;61.54
76285;BME280;65096;50.998;7.098;2023-05-07T18:55:35;101208.59;;;17.48;61.10
76285;BME280;65096;50.998;7.098;2023-05-07T18:58:02;101216.34;;;17.52;61.57
76285;BME280;65096;50.998;7.098;2023-05-07T19:00:30;101218.94;;;17.52;61.63
76285;BME280;65096;50.998;7.098;2023-05-07T19:02:57;101225.91;;;17.50;61.90
76285;BME280;65096;50.998;7.098;2023-05-07T19:05:23;101224.22;;;17.48;61.20
76285;BME280;65096;50.998;7.098;2023-05-07T19:07:50;101230.31;;;17.47;61.32
76285;BME280;65096;50.998;7.098;2023-05-07T19:10:17;101235.56;;;17.44;61.03
76285;BME280;65096;50.998;7.098;2023-05-07T19:12:43;101239.97;;;17.40;61.87
76285;BME280;65096;50.998;7.098;2023-05-07T19:15:10;101238.28;;;17.38;61.33
76285;BME280;65096;50.998;7.098;2023-05-07T19:17:38;101241.78;;;17.35;61.54
76285;BME280;65096;50.998;7.098;2023-05-07T19:20:06;101238.38;;;17.30;61.32
76285;BME280;65096;50.998;7.098;2023-05-07T19:22:33;101249.72;;;17.25;61.82
76285;BME280;65096;50.998;7.098;2023-05-07T19:25:00;101248.03;;;17.22;61.65
76285;BME280;65096;50.998;7.098;2023-05-07T19:27:27;101243.75;;;17.17;62.11
76285;BME280;65096;50.998;7.098;2023-05-07T19:29:54;101248.16;;;17.10;61.59
76285;BME280;65096;50.998;7.098;2023-05-07T19:32:20;101261.25;;;17.04;61.95
76285;BME280;65096;50.998;7.098;2023-05-07T19:34:48;101266.59;;;16.89;62.11
76285;BME280;65096;50.998;7.098;2023-05-07T19:37:15;101271.97;;;16.77;62.26
76285;BME280;65096;50.998;7.098;2023-05-07T19:39:42;101274.63;;;16.71;62.49
76285;BME280;65096;50.998;7.098;2023-05-07T19:42:08;101275.63;;;16.57;63.08
76285;BME280;65096;50.998;7.098;2023-05-07T19:44:36;101291.22;;;16.61;63.33
76285;BME280;65096;50.998;7.098;2023-05-07T19:47:02;101284.25;;;16.63;62.69
76285;BME280;65096;50.998;7.098;2023-05-07T19:49:30;101294.66;;;16.66;62.82
76285;BME280;65096;50.998;7.098;2023-05-07T19:51:58;101292.00;;;16.69;63.13
76285;BME280;65096;50.998;7.098;2023-05-07T19:54:25;101298.09;;;16.68;62.54
76285;BME280;65096;50.998;7.098;2023-05-07T19:56:51;101302.63;;;16.47;64.10
76285;BME280;65096;50.998;7.098;2023-05-07T19:59:18;101301.84;;;16.36;64.30
76285;BME280;65096;50.998;7.098;2023-05-07T20:01:45;101304.69;;;15.96;66.03
76285;BME280;65096;50.998;7.098;2023-05-07T20:04:11;101290.78;;;16.03;65.14
76285;BME280;65096;50.998;7.098;2023-05-07T20:06:38;101308.97;;;16.06;65.82
76285;BME280;65096;50.998;7.098;2023-05-07T20:09:07;101300.41;;;15.91;65.47
76285;BME280;65096;50.998;7.098;2023-05-07T20:11:36;101307.31;;;15.92;65.47
76285;BME280;65096;50.998;7.098;2023-05-07T20:14:03;101303.03;;;15.86;66.06
76285;BME280;65096;50.998;7.098;2023-05-07T20:16:30;101309.13;;;15.81;66.16
76285;BME280;65096;50.998;7.098;2023-05-07T20:18:58;101312.56;;;15.86;65.81
76285;BME280;65096;50.998;7.098;2023-05-07T20:21:24;101314.38;;;15.75;66.10
76285;BME280;65096;50.998;7.098;2023-05-07T20:23:51;101318.66;;;15.85;65.73
76285;BME280;65096;50.998;7.098;2023-05-07T20:26:20;101318.56;;;15.97;65.33
76285;BME280;65096;50.998;7.098;2023-05-07T20:28:46;101325.44;;;16.08;65.36
76285;BME280;65096;50.998;7.098;2023-05-07T20:31:13;101325.34;;;16.19;64.21
76285;BME280;65096;50.998;7.098;2023-05-07T20:33:40;101298.59;;;16.02;64.16
76285;BME280;65096;50.998;7.098;2023-05-07T20:36:07;101329.66;;;16.29;63.96
76285;BME280;65096;50.998;7.098;2023-05-07T20:38:34;101333.16;;;16.19;64.43
76285;BME280;65096;50.998;7.098;2023-05-07T20:41:05;101333.16;;;16.19;64.49
76285;BME280;65096;50.998;7.098;2023-05-07T20:43:34;101330.56;;;16.19;64.26
76285;BME280;65096;50.998;7.098;2023-05-07T20:46:01;101324.53;;;16.12;63.93
76285;BME280;65096;50.998;7.098;2023-05-07T20:48:28;101341.81;;;16.22;64.17
76285;BME280;65096;50.998;7.098;2023-05-07T20:50:56;101324.50;;;16.20;64.23
76285;BME280;65096;50.998;7.098;2023-05-07T20:53:24;101317.53;;;16.19;63.50
76285;BME280;65096;50.998;7.098;2023-05-07T20:55:52;101324.53;;;16.15;63.89
76285;BME280;65096;50.998;7.098;2023-05-07T20:58:19;101335.75;;;16.23;63.55
76285;BME280;65096;50.998;7.098;2023-05-07T21:00:50;101333.13;;;16.22;63.59
76285;BME280;65096;50.998;7.098;2023-05-07T21:03:17;101334.06;;;16.15;63.60
76285;BME280;65096;50.998;7.098;2023-05-07T21:05:50;101339.25;;;16.18;63.80
76285;BME280;65096;50.998;7.098;2023-05-07T21:08:16;101338.38;;;16.19;63.95
76285;BME280;65096;50.998;7.098;2023-05-07T21:10:43;101340.13;;;16.17;63.97
76285;BME280;65096;50.998;7.098;2023-05-07T21:13:10;101335.81;;;16.13;64.02
76285;BME280;65096;50.998;7.098;2023-05-07T21:15:36;101341.91;;;16.12;63.95
76285;BME280;65096;50.998;7.098;2023-05-07T21:18:05;101340.16;;;16.11;64.16
76285;BME280;65096;50.998;7.098;2023-05-07T21:20:32;101340.19;;;16.08;64.27
76285;BME280;65096;50.998;7.098;2023-05-07T21:22:59;101344.53;;;16.06;63.99
76285;BME280;65096;50.998;7.098;2023-05-07T21:25:25;101337.59;;;16.03;64.33
76285;BME280;65096;50.998;7.098;2023-05-07T21:27:52;101330.72;;;15.99;64.37
76285;BME280;65096;50.998;7.098;2023-05-07T21:30:19;101338.47;;;16.04;63.99
76285;BME280;65096;50.998;7.098;2023-05-07T21:32:46;101345.41;;;16.03;64.37
76285;BME280;65096;50.998;7.098;2023-05-07T21:35:14;101335.94;;;15.98;63.97
76285;BME280;65096;50.998;7.098;2023-05-07T21:37:41;101344.56;;;16.01;64.21
76285;BME280;65096;50.998;7.098;2023-05-07T21:40:08;101342.88;;;15.93;64.82
76285;BME280;65096;50.998;7.098;2023-05-07T21:42:35;101342.03;;;15.91;64.72
76285;BME280;65096;50.998;7.098;2023-05-07T21:45:03;101347.22;;;15.91;64.54
76285;BME280;65096;50.998;7.098;2023-05-07T21:47:30;101345.50;;;15.91;64.38
76285;BME280;65096;50.998;7.098;2023-05-07T21:49:57;101345.50;;;15.93;64.89
76285;BME280;65096;50.998;7.098;2023-05-07T21:52:25;101348.94;;;15.93;64.94
76285;BME280;65096;50.998;7.098;2023-05-07T21:54:52;101347.19;;;15.97;64.84
76285;BME280;65096;50.998;7.098;2023-05-07T21:57:18;101343.72;;;15.95;64.31
76285;BME280;65096;50.998;7.098;2023-05-07T21:59:45;101340.28;;;15.94;64.26
76285;BME280;65096;50.998;7.098;2023-05-07T22:02:12;101338.53;;;15.93;64.78
76285;BME280;65096;50.998;7.098;2023-05-07T22:04:39;101342.00;;;15.94;64.53
76285;BME280;65096;50.998;7.098;2023-05-07T22:07:05;101347.22;;;15.92;64.42
76285;BME280;65096;50.998;7.098;2023-05-07T22:09:33;101345.50;;;15.93;64.70
76285;BME280;65096;50.998;7.098;2023-05-07T22:12:00;101348.94;;;15.92;65.18
76285;BME280;65096;50.998;7.098;2023-05-07T22:14:27;101349.81;;;15.91;64.88
76285;BME280;65096;50.998;7.098;2023-05-07T22:16:54;101350.69;;;15.88;65.11
76285;BME280;65096;50.998;7.098;2023-05-07T22:19:20;101353.31;;;15.87;64.93
76285;BME280;65096;50.998;7.098;2023-05-07T22:21:47;101349.88;;;15.85;65.15
76285;BME280;65096;50.998;7.098;2023-05-07T22:24:14;101347.28;;;15.83;65.16
76285;BME280;65096;50.998;7.098;2023-05-07T22:26:42;101347.28;;;15.82;64.73
76285;BME280;65096;50.998;7.098;2023-05-07T22:29:09;101349.88;;;15.79;64.78
76285;BME280;65096;50.998;7.098;2023-05-07T22:31:36;101345.56;;;15.78;64.71
76285;BME280;65096;50.998;7.098;2023-05-07T22:34:02;101345.56;;;15.76;65.45
76285;BME280;65096;50.998;7.098;2023-05-07T22:36:29;101346.44;;;15.75;65.39
76285;BME280;65096;50.998;7.098;2023-05-07T22:38:56;101342.13;;;15.71;65.25
76285;BME280;65096;50.998;7.098;2023-05-07T22:41:23;101343.84;;;15.69;65.46
76285;BME280;65096;50.998;7.098;2023-05-07T22:43:52;101341.28;;;15.66;65.55
76285;BME280;65096;50.998;7.098;2023-05-07T22:46:18;101336.09;;;15.60;65.44
76285;BME280;65096;50.998;7.098;2023-05-07T22:48:45;101337.84;;;15.60;65.69
76285;BME280;65096;50.998;7.098;2023-05-07T22:51:12;101343.91;;;15.60;65.76
76285;BME280;65096;50.998;7.098;2023-05-07T22:53:39;101343.94;;;15.56;65.70
76285;BME280;65096;50.998;7.098;2023-05-07T22:56:06;101330.97;;;15.48;65.48
76285;BME280;65096;50.998;7.098;2023-05-07T22:58:33;101349.97;;;15.59;65.38
76285;BME280;65096;50.998;7.098;2023-05-07T23:01:01;101349.97;;;15.61;65.67
76285;BME280;65096;50.998;7.098;2023-05-07T23:03:28;101344.78;;;15.61;65.60
76285;BME280;65096;50.998;7.098;2023-05-07T23:05:55;101339.59;;;15.58;66.12
76285;BME280;65096;50.998;7.098;2023-05-07T23:08:21;101335.25;;;15.58;66.00
76285;BME280;65096;50.998;7.098;2023-05-07T23:10:48;101333.50;;;15.59;65.98
76285;BME280;65096;50.998;7.098;2023-05-07T23:13:15;101338.72;;;15.56;65.89
76285;BME280;65096;50.998;7.098;2023-05-07T23:15:42;101338.72;;;15.56;66.02
76285;BME280;65096;50.998;7.098;2023-05-07T23:18:10;101326.63;;;15.47;65.94
76285;BME280;65096;50.998;7.098;2023-05-07T23:20:37;101337.84;;;15.55;65.78
76285;BME280;65096;50.998;7.098;2023-05-07T23:23:05;101338.75;;;15.54;65.62
76285;BME280;65096;50.998;7.098;2023-05-07T23:25:32;101324.03;;;15.43;65.56
76285;BME280;65096;50.998;7.098;2023-05-07T23:27:58;101334.41;;;15.49;66.11
76285;BME280;65096;50.998;7.098;2023-05-07T23:30:25;101337.03;;;15.44;66.35
76285;BME280;65096;50.998;7.098;2023-05-07T23:32:52;101336.16;;;15.42;66.33
76285;BME280;65096;50.998;7.098;2023-05-07T23:35:20;101337.94;;;15.40;65.95
76285;BME280;65096;50.998;7.098;2023-05-07T23:37:47;101337.91;;;15.39;65.90
76285;BME280;65096;50.998;7.098;2023-05-07T23:40:16;101337.06;;;15.40;66.28
76285;BME280;65096;50.998;7.098;2023-05-07T23:42:42;101344.88;;;15.38;65.80
76285;BME280;65096;50.998;7.098;2023-05-07T23:45:09;101335.31;;;15.39;65.78
76285;BME280;65096;50.998;7.098;2023-05-07T23:47:36;101341.34;;;15.38;65.92
76285;BME280;65096;50.998;7.098;2023-05-07T23:50:03;101337.91;;;15.33;66.37
76285;BME280;65096;50.998;7.098;2023-05-07T23:52:31;101337.88;;;15.37;66.23
76285;BME280;65096;50.998;7.098;2023-05-07T23:54:58;101344.84;;;15.35;66.20
76285;BME280;65096;50.998;7.098;2023-05-07T23:57:25;101342.25;;;15.28;65.62
76285;BME280;65096;50.998;7.098;2023-05-07T23:59:52;101349.22;;;15.24;65.83
